Hlavní strana
METAR-TAF:

METAR-TAF

Letiště :

Lincolnton-Lincoln County Regional Airport

Lincolnton, Severní Karolína, Spojené státy americké

zeměpisná šířka: 35-28-59N, zeměpisná délka: 081-09-41W, výška: 267 m

Aktuální stav počasí

Zpráva byla vytvořena před 16 minutami, v 02:55 UTC
Jihozápadní vítr 9 kt
Teplota 6°C
Vlhkost vzduchu 100%
Tlak 1018 hPa
Viditelnost: 16.1 km
Polojasno ve výšce 700 ft
Polojasno ve výšce 2000 ft
Zataženo ve výšce 2500 ft

METAR: KIPJ 190255Z AUTO 23009KT 10SM SCT007 SCT020 OVC025 06/06 A3006 RMK AO2 T00620062

Čas: 22:11 (03:11 UTC)


TAF: chybějící

Stav a předpovědi počasí z více než 4 000 letišť (zprávy METAR a TAF).

Červené a žluté tečky na mapě představují dostupné meteorologické stanice.

Když kurzor umístíte na tečku, zobrazí se název stanice.

Pak kliknutím zobrazíte stav a předpověď počasí.

Chcete-li změnit mapu, kliknutím na zelené tlačítko se znaménkem +mapu přiblížíte, kliknutím na zelené tlačítko se znaménkem – mapu oddálíte a kliknutím na zelené šipky přejdete na sousední mapy.


METAR-TAF: